Terminal Aerodrome Forecast
Issued by NWS Charleston, WV

Current Version | Previous Version | Text Only | Print | Product List | Glossary Off
Versions: 1 2 3 4 5 6 7 8 9 10 11 12 13 14 15 16 17 18 19 20 21 22

849
FTUS41 KRLX 212331
TAFCRW
TAF
KCRW 212331Z 2200/2224 22005KT P6SM SCT120
     FM220300 00000KT P6SM SCT250
     FM220800 00000KT 5SM BR SCT250
     FM221100 00000KT 6SM BR SCT100 SCT200
     FM221500 23006KT P6SM BKN100
     FM222200 23007KT P6SM -SHRA VCTS BKN060CB=

USA.gov is the U.S. government's official web portal to all federal, state and local government web resources and services.